createdAt,value
2022-09-21T00:00:28.301Z,18.07
2022-09-21T00:01:32.328Z,18.04
2022-09-21T00:02:35.434Z,18.04
2022-09-21T00:03:41.421Z,18.10
2022-09-21T00:04:44.534Z,18.13
2022-09-21T00:05:47.555Z,18.18
2022-09-21T00:06:50.517Z,18.20
2022-09-21T00:07:53.543Z,18.04
2022-09-21T00:08:57.392Z,18.18
2022-09-21T00:10:00.267Z,18.23
2022-09-21T00:11:05.689Z,18.20
2022-09-21T00:12:09.471Z,18.23
2022-09-21T00:13:12.611Z,18.11
2022-09-21T00:14:16.224Z,18.19
2022-09-21T00:15:19.788Z,18.22
2022-09-21T00:16:23.861Z,18.24
2022-09-21T00:17:26.852Z,18.39
2022-09-21T00:18:29.799Z,18.36
2022-09-21T00:19:35.523Z,18.41
2022-09-21T00:20:43.625Z,18.29
2022-09-21T00:21:46.459Z,18.39
2022-09-21T00:22:49.404Z,18.45
2022-09-21T00:23:52.345Z,18.47
2022-09-21T00:24:56.241Z,18.50
2022-09-21T00:26:18.284Z,18.51
2022-09-21T00:27:21.427Z,18.51
2022-09-21T00:28:24.426Z,18.50
2022-09-21T00:29:27.533Z,18.49
2022-09-21T00:30:30.543Z,18.51
2022-09-21T00:31:33.991Z,18.51
2022-09-21T00:32:39.376Z,18.49
2022-09-21T00:33:43.798Z,18.50
2022-09-21T00:34:46.685Z,18.64
2022-09-21T00:35:49.670Z,18.50
2022-09-21T00:36:52.548Z,18.50
2022-09-21T00:37:55.458Z,18.52
2022-09-21T00:39:01.738Z,18.54
2022-09-21T00:40:05.622Z,18.59
2022-09-21T00:41:10.977Z,18.57
2022-09-21T00:42:28.957Z,18.63
2022-09-21T00:43:36.187Z,18.65
2022-09-21T00:44:39.175Z,18.68
2022-09-21T00:45:44.795Z,18.69
2022-09-21T00:46:51.768Z,18.70
2022-09-21T00:47:54.760Z,18.72
2022-09-21T00:48:58.636Z,18.71
2022-09-21T00:50:17.585Z,18.73
2022-09-21T00:51:20.881Z,18.71
2022-09-21T00:52:26.809Z,18.69
2022-09-21T00:53:30.176Z,18.74
2022-09-21T00:54:41.831Z,18.74
2022-09-21T00:55:51.101Z,18.75
2022-09-21T00:56:56.579Z,18.74
2022-09-21T00:58:08.416Z,18.79
2022-09-21T00:59:13.596Z,18.72
2022-09-21T01:00:16.435Z,18.69
2022-09-21T01:01:20.430Z,18.69
2022-09-21T01:02:23.464Z,18.71
2022-09-21T01:03:27.007Z,18.73
2022-09-21T01:04:30.444Z,18.73
2022-09-21T01:05:33.430Z,18.71
2022-09-21T01:06:38.862Z,18.73
2022-09-21T01:07:47.491Z,18.75
2022-09-21T01:08:54.266Z,18.78
2022-09-21T01:10:02.489Z,18.81
2022-09-21T01:11:31.354Z,18.85
2022-09-21T01:13:17.768Z,18.91
2022-09-21T01:15:11.939Z,18.88
2022-09-21T01:16:50.855Z,18.84
2022-09-21T01:17:57.111Z,18.80
2022-09-21T01:19:37.099Z,18.75
2022-09-21T01:21:07.608Z,18.77
2022-09-21T01:22:31.854Z,18.78
2022-09-21T01:23:49.820Z,18.76
2022-09-21T01:25:06.152Z,18.72
2022-09-21T01:26:41.990Z,18.62
2022-09-21T01:28:16.244Z,18.62
2022-09-21T01:29:33.184Z,18.58
2022-09-21T01:30:40.671Z,18.56
2022-09-21T01:32:18.038Z,18.61
2022-09-21T01:33:32.383Z,18.60
2022-09-21T01:34:57.738Z,18.57
2022-09-21T01:36:09.846Z,18.72
2022-09-21T01:37:20.130Z,18.81
2022-09-21T01:38:52.555Z,18.82
2022-09-21T01:40:00.955Z,18.76
2022-09-21T01:41:08.299Z,18.82
2022-09-21T01:42:14.246Z,18.83
2022-09-21T01:43:26.961Z,18.87
2022-09-21T01:44:33.375Z,18.83
2022-09-21T01:45:41.445Z,18.78
2022-09-21T01:46:46.997Z,18.77
2022-09-21T01:47:52.584Z,18.76
2022-09-21T01:49:10.750Z,18.71
2022-09-21T01:50:14.819Z,18.73
2022-09-21T01:51:22.613Z,18.74
2022-09-21T01:52:50.425Z,18.73
2022-09-21T01:54:07.827Z,18.73
2022-09-21T01:55:36.099Z,18.70
2022-09-21T01:56:49.372Z,18.72
2022-09-21T01:58:35.962Z,18.76
2022-09-21T01:59:51.247Z,18.74
2022-09-21T02:00:57.467Z,18.73
2022-09-21T02:02:46.332Z,18.76
2022-09-21T02:03:57.713Z,18.79
2022-09-21T02:05:03.399Z,18.71
2022-09-21T02:06:08.155Z,18.67
2022-09-21T02:07:11.552Z,18.74
2022-09-21T02:08:15.380Z,18.71
2022-09-21T02:09:19.437Z,18.74
2022-09-21T02:10:46.129Z,18.73
2022-09-21T02:11:49.044Z,18.69
2022-09-21T02:13:00.018Z,18.74
2022-09-21T02:14:03.426Z,18.78
2022-09-21T02:15:07.097Z,18.77
2022-09-21T02:16:12.824Z,18.72
2022-09-21T02:17:51.251Z,18.73
2022-09-21T02:19:12.442Z,18.74
2022-09-21T02:20:28.254Z,18.73
2022-09-21T02:22:10.232Z,18.71
2022-09-21T02:23:49.359Z,18.75
2022-09-21T02:25:06.469Z,18.75
2022-09-21T02:26:20.397Z,18.73
2022-09-21T02:27:58.911Z,18.84
2022-09-21T02:29:50.506Z,18.75
2022-09-21T02:31:31.080Z,18.72
2022-09-21T02:32:58.717Z,18.74
2022-09-21T02:34:11.737Z,18.76
2022-09-21T02:35:31.380Z,18.85
2022-09-21T02:36:48.276Z,18.85
2022-09-21T02:38:49.862Z,18.85
2022-09-21T02:40:21.924Z,18.88
2022-09-21T02:41:45.905Z,18.94
2022-09-21T02:42:54.396Z,18.88
2022-09-21T02:44:05.193Z,18.92
2022-09-21T02:45:22.340Z,18.94
2022-09-21T02:46:34.698Z,18.78
2022-09-21T02:47:54.496Z,18.62
2022-09-21T02:49:18.323Z,18.60
2022-09-21T02:50:45.644Z,18.84
2022-09-21T02:51:56.818Z,18.79
2022-09-21T02:53:01.458Z,18.83
2022-09-21T02:54:08.169Z,18.86
2022-09-21T02:55:13.510Z,18.88
2022-09-21T02:56:17.084Z,18.86
2022-09-21T02:57:23.848Z,18.84
2022-09-21T02:58:29.533Z,18.91
2022-09-21T02:59:32.871Z,18.90
2022-09-21T03:00:37.158Z,18.94
2022-09-21T03:01:41.261Z,18.91
2022-09-21T03:02:46.398Z,18.89
2022-09-21T03:03:49.522Z,18.97
2022-09-21T03:04:52.633Z,18.93
2022-09-21T03:05:55.992Z,18.92
2022-09-21T03:06:59.346Z,18.99
2022-09-21T03:08:02.449Z,18.89
2022-09-21T03:09:05.330Z,18.93
2022-09-21T03:10:09.329Z,18.82
2022-09-21T03:11:16.102Z,18.85
2022-09-21T03:12:20.557Z,18.88
2022-09-21T03:13:23.743Z,18.85
2022-09-21T03:14:26.761Z,18.85
2022-09-21T03:15:29.802Z,18.87
2022-09-21T03:16:32.622Z,18.93
2022-09-21T03:17:35.677Z,18.89
2022-09-21T03:18:40.312Z,18.92
2022-09-21T03:19:43.252Z,18.98
2022-09-21T03:20:47.061Z,18.89
2022-09-21T03:21:50.049Z,18.89
2022-09-21T03:22:52.880Z,18.92
2022-09-21T03:23:55.835Z,18.92
2022-09-21T03:24:59.827Z,18.91
2022-09-21T03:26:03.158Z,18.94
2022-09-21T03:27:06.128Z,19.00
2022-09-21T03:28:09.514Z,18.93
2022-09-21T03:29:12.410Z,18.92
2022-09-21T03:30:15.342Z,18.95
2022-09-21T03:31:18.555Z,18.93
2022-09-21T03:32:21.567Z,18.79
2022-09-21T03:33:25.479Z,18.89
2022-09-21T03:34:28.464Z,18.92
2022-09-21T03:35:31.792Z,18.94
2022-09-21T03:36:34.633Z,18.97
2022-09-21T03:37:41.157Z,18.95
2022-09-21T03:38:44.699Z,19.01
2022-09-21T03:39:47.585Z,19.01
2022-09-21T03:40:51.363Z,19.05
2022-09-21T03:41:57.923Z,19.04
2022-09-21T03:43:00.968Z,19.09
2022-09-21T03:44:04.113Z,19.10
2022-09-21T03:45:08.965Z,19.18
2022-09-21T03:46:11.844Z,19.13
2022-09-21T03:47:14.793Z,19.11
2022-09-21T03:48:17.961Z,19.06
2022-09-21T03:49:21.354Z,19.03
2022-09-21T03:50:28.938Z,19.19
2022-09-21T03:51:31.967Z,19.05
2022-09-21T03:52:36.429Z,19.04
2022-09-21T03:53:39.347Z,19.01
2022-09-21T03:54:42.411Z,18.98
2022-09-21T03:55:45.550Z,18.95
2022-09-21T03:56:48.672Z,18.98
2022-09-21T03:57:51.984Z,18.94
2022-09-21T03:58:54.992Z,18.91
2022-09-21T03:59:58.045Z,18.91
2022-09-21T04:01:04.288Z,18.94
2022-09-21T04:02:07.211Z,18.91
2022-09-21T04:03:09.951Z,18.91
2022-09-21T04:04:12.798Z,18.92
2022-09-21T04:05:17.192Z,18.94
2022-09-21T04:06:20.661Z,18.92
2022-09-21T04:07:24.065Z,18.95
2022-09-21T04:08:27.018Z,18.96
2022-09-21T04:09:30.369Z,18.96
2022-09-21T04:10:33.422Z,18.96
2022-09-21T04:11:36.434Z,18.93
2022-09-21T04:12:42.923Z,18.89
2022-09-21T04:13:53.306Z,18.93
2022-09-21T04:14:56.272Z,18.95
2022-09-21T04:15:59.417Z,18.92
2022-09-21T04:17:02.714Z,18.92
2022-09-21T04:18:05.962Z,18.89
2022-09-21T04:19:08.801Z,18.89
2022-09-21T04:20:12.408Z,18.91
2022-09-21T04:21:15.454Z,18.91
2022-09-21T04:22:18.837Z,18.89
2022-09-21T04:23:23.139Z,18.92
2022-09-21T04:24:27.289Z,18.89
2022-09-21T04:25:30.557Z,18.94
2022-09-21T04:26:35.365Z,18.94
2022-09-21T04:27:38.662Z,18.94
2022-09-21T04:28:41.568Z,18.98
2022-09-21T04:29:44.975Z,19.04
2022-09-21T04:30:47.960Z,19.06
2022-09-21T04:31:51.106Z,19.04
2022-09-21T04:32:54.136Z,19.10
2022-09-21T04:33:58.908Z,19.12
2022-09-21T04:35:02.087Z,19.09
2022-09-21T04:36:06.438Z,19.13
2022-09-21T04:37:13.093Z,19.07
2022-09-21T04:38:15.979Z,19.01
2022-09-21T04:39:18.861Z,19.06
2022-09-21T04:40:23.395Z,19.08
2022-09-21T04:41:27.304Z,19.09
2022-09-21T04:42:30.730Z,19.11
2022-09-21T04:43:33.843Z,19.05
2022-09-21T04:44:37.390Z,19.04
2022-09-21T04:45:40.678Z,19.07
2022-09-21T04:46:43.652Z,19.09
2022-09-21T04:47:46.621Z,19.06
2022-09-21T04:48:49.998Z,19.05
2022-09-21T04:49:53.716Z,19.10
2022-09-21T04:50:56.741Z,19.11
2022-09-21T04:52:00.036Z,19.07
2022-09-21T04:53:02.998Z,19.07
2022-09-21T04:54:06.726Z,19.10
2022-09-21T04:55:09.705Z,19.16
2022-09-21T04:56:15.555Z,19.17
2022-09-21T04:57:18.472Z,19.19
2022-09-21T04:58:24.492Z,19.26
2022-09-21T04:59:27.867Z,19.32
2022-09-21T05:00:31.275Z,19.31
2022-09-21T05:01:34.581Z,19.37
2022-09-21T05:02:37.705Z,19.41
2022-09-21T05:03:41.020Z,19.38
2022-09-21T05:04:47.512Z,19.32
2022-09-21T05:05:57.664Z,19.35
2022-09-21T05:07:00.603Z,19.38
2022-09-21T05:08:03.531Z,19.43
2022-09-21T05:09:24.934Z,19.42
2022-09-21T05:10:28.185Z,19.50
2022-09-21T05:11:31.450Z,19.53
2022-09-21T05:12:39.687Z,19.54
2022-09-21T05:13:44.025Z,19.56
2022-09-21T05:14:47.028Z,19.60
2022-09-21T05:15:49.905Z,19.55
2022-09-21T05:16:52.682Z,19.56
2022-09-21T05:17:55.738Z,19.55
2022-09-21T05:18:58.808Z,19.65
2022-09-21T05:20:02.061Z,19.63
2022-09-21T05:21:06.470Z,19.71
2022-09-21T05:22:09.535Z,19.70
2022-09-21T05:23:16.656Z,19.71
2022-09-21T05:24:19.836Z,19.76
2022-09-21T05:25:22.717Z,19.87
2022-09-21T05:26:25.816Z,19.91
2022-09-21T05:27:28.847Z,20.00
2022-09-21T05:28:34.578Z,20.02
2022-09-21T05:29:42.066Z,20.08
2022-09-21T05:31:16.220Z,20.16
2022-09-21T05:32:43.857Z,20.16
2022-09-21T05:33:58.574Z,20.25
2022-09-21T05:35:25.110Z,20.35
2022-09-21T05:37:01.015Z,20.38
2022-09-21T05:38:24.571Z,20.36
2022-09-21T05:39:28.127Z,20.41
2022-09-21T05:40:31.786Z,20.48
2022-09-21T05:41:35.515Z,20.48
2022-09-21T05:42:39.006Z,20.49
2022-09-21T05:43:42.677Z,20.45
2022-09-21T05:44:46.013Z,20.52
2022-09-21T05:46:02.363Z,20.46
2022-09-21T05:47:45.554Z,20.57
2022-09-21T05:49:02.985Z,20.59
2022-09-21T05:51:09.089Z,20.65
2022-09-21T05:52:41.195Z,20.70
2022-09-21T05:54:04.630Z,20.73
2022-09-21T05:55:47.091Z,20.86
2022-09-21T05:57:05.771Z,20.97
2022-09-21T05:58:35.667Z,21.06
2022-09-21T06:00:13.386Z,21.21
2022-09-21T06:01:31.085Z,21.28
2022-09-21T06:02:45.268Z,21.38
2022-09-21T06:03:50.187Z,21.51
2022-09-21T06:04:56.637Z,21.63
2022-09-21T06:05:59.714Z,21.68
2022-09-21T06:07:02.937Z,21.97
2022-09-21T06:08:05.720Z,22.30
2022-09-21T06:09:08.595Z,22.40
2022-09-21T06:10:13.969Z,22.61
2022-09-21T06:11:17.120Z,22.62
2022-09-21T06:12:20.054Z,22.75
2022-09-21T06:13:22.970Z,22.74
2022-09-21T06:14:26.577Z,22.80
2022-09-21T06:15:29.510Z,22.89
2022-09-21T06:16:43.457Z,23.03
2022-09-21T06:17:46.586Z,23.08
2022-09-21T06:18:49.467Z,23.15
2022-09-21T06:19:52.379Z,23.08
2022-09-21T06:20:55.360Z,23.43
2022-09-21T06:21:58.367Z,23.62
2022-09-21T06:23:08.470Z,23.85
2022-09-21T06:24:12.029Z,24.02
2022-09-21T06:25:14.966Z,23.94
2022-09-21T06:26:17.912Z,23.98
2022-09-21T06:27:20.927Z,23.99
2022-09-21T06:28:23.798Z,24.02
2022-09-21T06:29:26.660Z,24.12
2022-09-21T06:30:29.674Z,23.93
2022-09-21T06:31:33.432Z,24.03
2022-09-21T06:32:36.602Z,24.11
2022-09-21T06:33:39.466Z,24.08
2022-09-21T06:34:43.007Z,24.11
2022-09-21T06:35:56.673Z,24.21
2022-09-21T06:36:59.577Z,24.22
2022-09-21T06:38:06.217Z,24.15
2022-09-21T06:39:09.139Z,24.22
2022-09-21T06:40:11.990Z,24.39
2022-09-21T06:41:20.129Z,24.31
2022-09-21T06:42:24.171Z,23.98
2022-09-21T06:43:27.370Z,24.02
2022-09-21T06:44:31.031Z,24.05
2022-09-21T06:45:34.230Z,24.06
2022-09-21T06:46:37.493Z,24.13
2022-09-21T06:47:46.547Z,24.04
2022-09-21T06:48:49.305Z,24.18
2022-09-21T06:49:53.879Z,24.31
2022-09-21T06:51:02.086Z,24.50
2022-09-21T06:52:05.189Z,24.57
2022-09-21T06:53:08.055Z,24.79
2022-09-21T06:54:11.473Z,25.09
2022-09-21T06:55:15.006Z,25.28
2022-09-21T06:56:18.163Z,25.26
2022-09-21T06:57:21.154Z,25.26
2022-09-21T06:58:24.025Z,25.27
2022-09-21T06:59:27.107Z,24.98
2022-09-21T07:00:31.298Z,24.88
2022-09-21T07:01:34.269Z,24.71
2022-09-21T07:02:37.396Z,24.69
2022-09-21T07:03:42.113Z,24.70
2022-09-21T07:04:45.145Z,24.62
2022-09-21T07:05:48.003Z,24.65
2022-09-21T07:06:51.318Z,24.57
2022-09-21T07:07:59.228Z,24.59
2022-09-21T07:10:26.644Z,24.58
2022-09-21T07:11:29.784Z,24.53
2022-09-21T07:12:34.671Z,24.52
2022-09-21T07:13:37.708Z,24.54
2022-09-21T07:14:40.849Z,24.52
2022-09-21T07:15:44.591Z,24.68
2022-09-21T07:16:47.518Z,24.73
2022-09-21T07:17:52.260Z,24.67
2022-09-21T07:18:55.406Z,24.71
2022-09-21T07:19:58.760Z,24.73
2022-09-21T07:21:07.190Z,24.33
2022-09-21T07:22:10.010Z,24.41
2022-09-21T07:23:19.366Z,24.23
2022-09-21T07:24:22.377Z,24.21
2022-09-21T07:25:25.724Z,24.00
2022-09-21T07:26:28.981Z,23.81
2022-09-21T07:27:33.894Z,23.90
2022-09-21T07:28:37.290Z,24.31
2022-09-21T07:29:40.141Z,24.42
2022-09-21T07:30:43.290Z,25.09
2022-09-21T07:31:46.673Z,26.23
2022-09-21T07:32:49.528Z,27.31
2022-09-21T07:33:58.596Z,28.36
2022-09-21T07:35:02.539Z,28.58
2022-09-21T07:36:12.971Z,29.80
2022-09-21T07:37:16.367Z,30.46
2022-09-21T07:38:19.792Z,31.23
2022-09-21T07:39:22.591Z,31.61
2022-09-21T07:40:25.966Z,32.54
2022-09-21T07:41:29.224Z,32.75
2022-09-21T07:42:32.258Z,32.44
2022-09-21T07:43:35.417Z,32.40
2022-09-21T07:44:38.331Z,32.14
2022-09-21T07:45:41.848Z,31.46
2022-09-21T07:46:48.279Z,30.75
2022-09-21T07:47:54.295Z,30.13
2022-09-21T07:48:57.868Z,29.16
2022-09-21T07:50:00.921Z,28.52
2022-09-21T07:51:06.999Z,27.98
2022-09-21T07:52:11.242Z,27.41
2022-09-21T07:53:16.385Z,26.96
2022-09-21T07:54:19.211Z,26.69
2022-09-21T07:55:22.167Z,26.55
2022-09-21T07:56:25.782Z,26.36
2022-09-21T07:57:47.266Z,26.22
2022-09-21T07:59:08.583Z,26.09
2022-09-21T08:00:12.397Z,26.20
2022-09-21T08:01:16.163Z,26.21
2022-09-21T08:02:19.258Z,26.25
2022-09-21T08:03:22.295Z,26.32
2022-09-21T08:04:25.220Z,26.35
2022-09-21T08:05:28.300Z,26.30
2022-09-21T08:06:33.617Z,26.64
2022-09-21T08:07:36.708Z,27.01
2022-09-21T08:08:39.593Z,27.31
2022-09-21T08:09:42.545Z,27.38
2022-09-21T08:10:45.487Z,27.43
2022-09-21T08:11:48.376Z,27.59
2022-09-21T08:12:51.269Z,27.52
2022-09-21T08:13:59.572Z,27.43
2022-09-21T08:15:03.261Z,27.52
2022-09-21T08:16:06.732Z,27.41
2022-09-21T08:17:09.772Z,27.39
2022-09-21T08:18:12.716Z,27.28
2022-09-21T08:19:17.274Z,27.28
2022-09-21T08:20:21.947Z,27.29
2022-09-21T08:21:24.888Z,26.98
2022-09-21T08:22:27.774Z,27.12
2022-09-21T08:23:31.191Z,26.96
2022-09-21T08:24:35.209Z,26.94
2022-09-21T08:25:38.151Z,27.06
2022-09-21T08:26:41.110Z,27.47
2022-09-21T08:27:44.092Z,27.64
2022-09-21T08:28:50.100Z,27.63
2022-09-21T08:29:53.071Z,27.85
2022-09-21T08:31:08.396Z,30.09
2022-09-21T08:32:22.859Z,29.91
2022-09-21T08:33:34.897Z,29.99
2022-09-21T08:34:38.039Z,29.89
2022-09-21T08:35:40.922Z,29.69
2022-09-21T08:36:44.112Z,29.35
2022-09-21T08:37:47.043Z,29.28
2022-09-21T08:38:50.892Z,29.11
2022-09-21T08:39:54.010Z,29.16
2022-09-21T08:40:57.127Z,30.50
2022-09-21T08:42:35.153Z,30.37
2022-09-21T08:43:44.031Z,30.22
2022-09-21T08:44:56.984Z,30.56
2022-09-21T08:46:01.252Z,31.49
2022-09-21T08:47:22.797Z,32.88
2022-09-21T08:48:36.940Z,34.10
2022-09-21T08:49:44.910Z,34.30
2022-09-21T08:50:58.027Z,33.66
2022-09-21T08:52:06.159Z,34.26
2022-09-21T08:53:18.436Z,34.51
2022-09-21T08:54:40.646Z,34.45
2022-09-21T08:55:43.674Z,34.28
2022-09-21T08:57:04.509Z,34.21
2022-09-21T08:58:29.822Z,33.89
2022-09-21T08:59:35.304Z,33.08
2022-09-21T09:00:41.159Z,32.33
2022-09-21T09:02:05.241Z,32.72
2022-09-21T09:03:24.493Z,35.76
2022-09-21T09:04:58.090Z,37.19
2022-09-21T09:06:29.933Z,38.88
2022-09-21T09:08:18.116Z,38.49
2022-09-21T09:09:45.500Z,40.57
2022-09-21T09:11:10.219Z,41.77
2022-09-21T09:12:41.529Z,43.77
2022-09-21T09:14:22.053Z,45.53
2022-09-21T09:15:47.048Z,45.60
2022-09-21T09:16:55.322Z,46.96
2022-09-21T09:18:32.152Z,48.91
2022-09-21T09:19:46.243Z,49.93
2022-09-21T09:21:30.431Z,49.97
2022-09-21T09:23:00.093Z,49.99
2022-09-21T09:24:15.459Z,48.03
2022-09-21T09:25:24.856Z,47.92
2022-09-21T09:26:36.282Z,47.42
2022-09-21T09:27:44.407Z,46.64
2022-09-21T09:29:03.301Z,44.81
2022-09-21T09:30:26.281Z,42.94
2022-09-21T09:31:36.167Z,41.22
2022-09-21T09:32:57.211Z,39.84
2022-09-21T09:34:27.684Z,38.57
2022-09-21T09:35:50.634Z,37.70
2022-09-21T09:37:02.318Z,37.00
2022-09-21T09:38:50.671Z,36.43
2022-09-21T09:39:59.661Z,38.30
2022-09-21T09:41:42.225Z,39.25
2022-09-21T09:43:13.172Z,37.96
2022-09-21T09:45:09.441Z,41.55
2022-09-21T09:46:39.883Z,43.44
2022-09-21T09:47:54.524Z,45.50
2022-09-21T09:49:09.968Z,47.51
2022-09-21T09:50:36.546Z,49.50
2022-09-21T09:51:40.551Z,51.31
2022-09-21T09:52:45.280Z,52.90
2022-09-21T09:53:49.116Z,54.48
2022-09-21T09:54:52.174Z,55.68
2022-09-21T09:55:58.453Z,57.14
2022-09-21T09:57:06.107Z,57.19
2022-09-21T09:58:29.227Z,58.51
2022-09-21T09:59:54.239Z,59.29
2022-09-21T10:00:58.960Z,57.12
2022-09-21T10:02:08.626Z,54.52
2022-09-21T10:03:24.647Z,51.83
2022-09-21T10:04:28.214Z,48.40
2022-09-21T10:05:31.107Z,46.55
2022-09-21T10:06:34.459Z,44.70
2022-09-21T10:07:43.685Z,42.46
2022-09-21T10:08:47.338Z,40.62
2022-09-21T10:09:50.257Z,38.89
2022-09-21T10:10:53.289Z,37.46
2022-09-21T10:12:16.995Z,35.98
2022-09-21T10:13:34.759Z,34.29
2022-09-21T10:14:38.031Z,33.18
2022-09-21T10:16:05.711Z,32.05
2022-09-21T10:17:16.351Z,31.25
2022-09-21T10:18:34.938Z,33.10
2022-09-21T10:19:38.266Z,35.96
2022-09-21T10:20:56.325Z,38.79
2022-09-21T10:22:04.838Z,40.72
2022-09-21T10:23:12.691Z,42.87
2022-09-21T10:24:20.688Z,45.26
2022-09-21T10:25:24.542Z,46.40
2022-09-21T10:26:44.358Z,47.64
2022-09-21T10:27:51.644Z,47.02
2022-09-21T10:29:00.857Z,49.44
2022-09-21T10:30:04.814Z,47.94
2022-09-21T10:31:24.106Z,45.78
2022-09-21T10:32:29.815Z,44.28
2022-09-21T10:33:33.416Z,43.66
2022-09-21T10:34:36.510Z,42.59
2022-09-21T10:35:52.336Z,41.52
2022-09-21T10:37:00.796Z,40.48
2022-09-21T10:38:22.418Z,39.09
2022-09-21T10:39:31.345Z,37.92
2022-09-21T10:40:38.599Z,36.57
2022-09-21T10:41:41.688Z,35.65
2022-09-21T10:42:45.476Z,34.73
2022-09-21T10:43:50.892Z,34.23
2022-09-21T10:45:16.415Z,33.82
2022-09-21T10:46:35.636Z,33.62
2022-09-21T10:47:46.630Z,33.83
2022-09-21T10:48:49.768Z,34.91
2022-09-21T10:50:00.659Z,35.62
2022-09-21T10:51:04.377Z,35.31
2022-09-21T10:52:07.483Z,35.40
2022-09-21T10:53:10.139Z,35.40
2022-09-21T10:54:21.643Z,35.07
2022-09-21T10:55:25.505Z,34.73
2022-09-21T10:56:28.457Z,34.11
2022-09-21T10:57:33.093Z,33.65
2022-09-21T10:58:36.619Z,33.22
2022-09-21T10:59:39.822Z,32.72
2022-09-21T11:00:48.222Z,32.30
2022-09-21T11:01:55.115Z,31.65
2022-09-21T11:03:01.426Z,31.18
2022-09-21T11:04:12.215Z,30.72
2022-09-21T11:05:29.979Z,30.31
2022-09-21T11:06:44.165Z,30.02
2022-09-21T11:08:16.548Z,29.44
2022-09-21T11:10:07.290Z,29.08
2022-09-21T11:11:37.934Z,28.98
2022-09-21T11:13:01.228Z,32.22
2022-09-21T11:14:24.913Z,34.78
2022-09-21T11:16:01.343Z,34.42
2022-09-21T11:17:20.255Z,35.43
2022-09-21T11:18:36.898Z,35.78
2022-09-21T11:19:57.747Z,34.88
2022-09-21T11:21:20.160Z,34.49
2022-09-21T11:22:59.560Z,33.60
2022-09-21T11:24:27.526Z,33.30
2022-09-21T11:25:53.763Z,33.00
2022-09-21T11:27:18.299Z,32.90
2022-09-21T11:28:52.677Z,32.66
2022-09-21T11:30:18.726Z,32.20
2022-09-21T11:31:34.570Z,31.89
2022-09-21T11:33:12.193Z,31.27
2022-09-21T11:34:57.684Z,31.21
2022-09-21T11:36:44.481Z,31.08
2022-09-21T11:38:43.106Z,31.00
2022-09-21T11:40:22.146Z,30.91
2022-09-21T11:41:50.071Z,31.15
2022-09-21T11:43:29.629Z,31.32
2022-09-21T11:44:47.076Z,31.36
2022-09-21T11:46:12.977Z,31.47
2022-09-21T11:47:31.633Z,31.63
2022-09-21T11:49:32.314Z,31.73
2022-09-21T11:50:57.652Z,31.25
2022-09-21T11:52:24.213Z,31.21
2022-09-21T11:53:54.252Z,30.89
2022-09-21T11:55:37.211Z,30.78
2022-09-21T11:56:50.122Z,30.73
2022-09-21T11:58:18.830Z,30.75
2022-09-21T11:59:30.174Z,30.65
2022-09-21T12:01:40.010Z,30.01
2022-09-21T12:02:52.163Z,29.80
2022-09-21T12:04:42.090Z,29.47
2022-09-21T12:06:07.698Z,29.00
2022-09-21T12:07:31.872Z,28.51
2022-09-21T12:09:06.311Z,28.34
2022-09-21T12:10:46.017Z,28.11
2022-09-21T12:12:04.435Z,28.00
2022-09-21T12:13:34.423Z,27.93
2022-09-21T12:15:06.302Z,27.68
2022-09-21T12:16:37.828Z,27.12
2022-09-21T12:18:21.506Z,26.53
2022-09-21T12:19:39.839Z,25.78
2022-09-21T12:21:02.162Z,24.95
2022-09-21T12:22:35.527Z,24.38
2022-09-21T12:23:59.654Z,23.70
2022-09-21T12:25:25.617Z,23.33
2022-09-21T12:26:50.404Z,23.09
2022-09-21T12:28:44.510Z,22.77
2022-09-21T12:29:54.238Z,22.65
2022-09-21T12:31:04.977Z,22.44
2022-09-21T12:32:12.131Z,22.59
2022-09-21T12:33:45.361Z,22.57
2022-09-21T12:34:58.509Z,22.54
2022-09-21T12:36:40.936Z,22.52
2022-09-21T12:37:57.357Z,22.61
2022-09-21T12:39:37.416Z,22.76
2022-09-21T12:41:12.329Z,22.78
2022-09-21T12:42:34.172Z,22.91
2022-09-21T12:44:15.427Z,23.26
2022-09-21T12:45:25.923Z,23.46
2022-09-21T12:46:43.845Z,23.62
2022-09-21T12:48:26.284Z,23.90
2022-09-21T12:49:33.218Z,24.04
2022-09-21T12:51:27.197Z,24.18
2022-09-21T12:52:32.465Z,24.22
2022-09-21T12:53:38.821Z,24.30
2022-09-21T12:55:28.980Z,24.41
2022-09-21T12:56:51.614Z,24.46
2022-09-21T12:58:15.510Z,24.57
2022-09-21T12:59:44.101Z,24.75
2022-09-21T13:01:09.275Z,24.87
2022-09-21T13:02:33.373Z,24.96
2022-09-21T13:04:02.050Z,25.08
2022-09-21T13:05:21.106Z,25.16
2022-09-21T13:07:00.461Z,25.29
2022-09-21T13:08:25.395Z,25.49
2022-09-21T13:09:30.079Z,25.55
2022-09-21T13:11:00.976Z,25.69
2022-09-21T13:12:34.947Z,25.72
2022-09-21T13:13:53.440Z,25.85
2022-09-21T13:15:05.167Z,25.82
2022-09-21T13:16:23.382Z,25.78
2022-09-21T13:17:31.976Z,25.69
2022-09-21T13:18:41.795Z,25.63
2022-09-21T13:19:44.696Z,25.57
2022-09-21T13:20:48.541Z,25.36
2022-09-21T13:22:14.759Z,25.16
2022-09-21T13:23:50.824Z,25.02
2022-09-21T13:25:01.396Z,24.89
2022-09-21T13:26:12.119Z,24.96
2022-09-21T13:27:16.127Z,24.87
2022-09-21T13:28:21.624Z,24.88
2022-09-21T13:29:29.801Z,24.89
2022-09-21T13:30:45.737Z,24.83
2022-09-21T13:32:23.430Z,25.05
2022-09-21T13:33:26.423Z,25.08
2022-09-21T13:34:35.353Z,25.04
2022-09-21T13:36:04.825Z,24.97
2022-09-21T13:37:19.470Z,24.97
2022-09-21T13:38:41.684Z,24.84
2022-09-21T13:40:03.281Z,24.72
2022-09-21T13:41:18.254Z,24.60
2022-09-21T13:42:30.078Z,24.57
2022-09-21T13:44:01.153Z,24.48
2022-09-21T13:45:18.746Z,24.28
2022-09-21T13:46:36.786Z,24.20
2022-09-21T13:47:48.089Z,24.08
2022-09-21T13:48:54.335Z,24.03
2022-09-21T13:50:00.616Z,23.97
2022-09-21T13:51:10.133Z,23.89
2022-09-21T13:52:16.783Z,23.83
2022-09-21T13:53:26.866Z,23.73
2022-09-21T13:54:48.729Z,23.75
2022-09-21T13:56:09.997Z,23.46
2022-09-21T13:57:19.041Z,23.53
2022-09-21T13:58:27.910Z,23.46
2022-09-21T13:59:35.171Z,23.45
2022-09-21T14:00:51.690Z,23.47
2022-09-21T14:01:56.168Z,23.41
2022-09-21T14:03:27.797Z,23.36
2022-09-21T14:04:36.915Z,23.42
2022-09-21T14:05:44.703Z,23.43
2022-09-21T14:06:50.562Z,23.45
2022-09-21T14:08:01.986Z,23.38
2022-09-21T14:09:19.157Z,23.32
2022-09-21T14:10:23.484Z,23.24
2022-09-21T14:11:40.957Z,23.42
2022-09-21T14:12:46.916Z,23.51
2022-09-21T14:14:22.913Z,23.51
2022-09-21T14:15:25.773Z,23.58
2022-09-21T14:16:34.442Z,23.57
2022-09-21T14:17:42.305Z,23.50
2022-09-21T14:18:46.963Z,23.54
2022-09-21T14:19:52.810Z,23.61
2022-09-21T14:21:17.154Z,23.80
2022-09-21T14:22:20.508Z,23.97
2022-09-21T14:23:24.096Z,24.12
2022-09-21T14:24:38.789Z,24.39
2022-09-21T14:25:56.686Z,24.53
2022-09-21T14:27:16.270Z,24.59
2022-09-21T14:28:35.160Z,24.73
2022-09-21T14:29:48.343Z,24.87
2022-09-21T14:30:59.329Z,24.80
2022-09-21T14:32:11.875Z,24.91
2022-09-21T14:33:53.663Z,25.00
2022-09-21T14:35:11.067Z,25.04
2022-09-21T14:36:31.144Z,25.03
2022-09-21T14:37:46.490Z,24.94
2022-09-21T14:39:00.591Z,24.92
2022-09-21T14:40:23.699Z,24.79
2022-09-21T14:41:39.083Z,24.75
2022-09-21T14:42:42.102Z,24.70
2022-09-21T14:43:54.486Z,24.54
2022-09-21T14:45:02.201Z,24.52
2022-09-21T14:46:43.761Z,24.43
2022-09-21T14:48:24.403Z,24.27
2022-09-21T14:49:40.695Z,24.16
2022-09-21T14:52:12.922Z,23.81
2022-09-21T14:54:03.022Z,23.58
2022-09-21T14:55:30.333Z,23.52
2022-09-21T14:57:16.486Z,23.42
2022-09-21T14:58:46.926Z,23.35
2022-09-21T15:00:14.891Z,23.13
2022-09-21T15:01:36.000Z,23.16
2022-09-21T15:02:38.983Z,23.08
2022-09-21T15:04:04.956Z,23.10
2022-09-21T15:05:44.068Z,22.97
2022-09-21T15:07:55.674Z,23.09
2022-09-21T15:10:03.614Z,23.02
2022-09-21T15:11:42.027Z,23.08
2022-09-21T15:13:20.258Z,23.22
2022-09-21T15:14:27.634Z,23.28
2022-09-21T15:15:41.359Z,23.35
2022-09-21T15:16:48.817Z,23.45
2022-09-21T15:17:59.766Z,23.55
2022-09-21T15:19:20.379Z,23.60
2022-09-21T15:20:23.626Z,23.72
2022-09-21T15:21:29.324Z,23.66
2022-09-21T15:22:32.823Z,23.59
2022-09-21T15:23:39.821Z,23.61
2022-09-21T15:24:57.044Z,23.48
2022-09-21T15:26:08.979Z,23.26
2022-09-21T15:27:16.828Z,23.41
2022-09-21T15:28:19.718Z,23.45
2022-09-21T15:29:31.396Z,23.39
2022-09-21T15:30:46.765Z,23.27
2022-09-21T15:31:49.682Z,22.96
2022-09-21T15:33:03.027Z,22.53
2022-09-21T15:34:08.280Z,22.24
2022-09-21T15:35:35.750Z,21.89
2022-09-21T15:36:42.068Z,21.59